createdAt,value
2023-03-04T00:00:25.408Z,129.30
2023-03-04T00:01:27.909Z,134.75
2023-03-04T00:02:37.597Z,130.23
2023-03-04T00:03:40.086Z,131.63
2023-03-04T00:04:48.092Z,117.65
2023-03-04T00:05:50.767Z,111.80
2023-03-04T00:06:56.195Z,109.38
2023-03-04T00:07:58.679Z,104.53
2023-03-04T00:09:04.511Z,100.65
2023-03-04T00:10:08.373Z,106.60
2023-03-04T00:11:14.033Z,104.63
2023-03-04T00:12:16.262Z,111.45
2023-03-04T00:13:22.663Z,98.95
2023-03-04T00:14:25.065Z,113.60
2023-03-04T00:15:30.327Z,118.25
2023-03-04T00:16:32.980Z,107.50
2023-03-04T00:17:40.677Z,104.72
2023-03-04T00:18:43.179Z,101.28
2023-03-04T00:19:52.496Z,106.90
2023-03-04T00:20:55.704Z,105.20
2023-03-04T00:22:00.899Z,98.53
2023-03-04T00:23:03.593Z,103.60
2023-03-04T00:24:09.533Z,100.32
2023-03-04T00:25:14.855Z,103.20
2023-03-04T00:26:20.799Z,99.28
2023-03-04T00:27:23.673Z,100.13
2023-03-04T00:28:28.822Z,99.30
2023-03-04T00:29:31.309Z,97.22
2023-03-04T00:30:36.432Z,91.57
2023-03-04T00:31:38.828Z,107.57
2023-03-04T00:32:46.443Z,107.05
2023-03-04T00:33:48.749Z,108.43
2023-03-04T00:34:57.140Z,91.63
2023-03-04T00:35:59.989Z,107.03
2023-03-04T00:37:05.450Z,106.85
2023-03-04T00:38:08.034Z,104.63
2023-03-04T00:39:15.605Z,118.70
2023-03-04T00:40:18.957Z,106.97
2023-03-04T00:41:26.746Z,110.05
2023-03-04T00:42:32.039Z,117.70
2023-03-04T00:43:34.513Z,106.53
2023-03-04T00:44:39.630Z,115.32
2023-03-04T00:45:42.127Z,108.60
2023-03-04T00:46:47.686Z,107.88
2023-03-04T00:47:50.346Z,143.18
2023-03-04T00:48:56.092Z,133.70
2023-03-04T00:50:02.255Z,131.27
2023-03-04T00:51:08.837Z,126.57
2023-03-04T00:52:11.499Z,102.22
2023-03-04T00:53:16.946Z,106.53
2023-03-04T00:54:19.303Z,102.13
2023-03-04T00:55:24.533Z,92.63
2023-03-04T00:56:26.844Z,96.30
2023-03-04T00:57:31.894Z,89.15
2023-03-04T00:58:34.108Z,93.47
2023-03-04T00:59:41.255Z,89.15
2023-03-04T01:00:43.610Z,91.43
2023-03-04T01:01:48.714Z,100.25
2023-03-04T01:02:51.467Z,94.72
2023-03-04T01:03:56.748Z,94.22
2023-03-04T01:05:02.291Z,97.95
2023-03-04T01:06:07.601Z,99.72
2023-03-04T01:07:10.137Z,102.30
2023-03-04T01:08:15.413Z,91.35
2023-03-04T01:09:17.894Z,89.35
2023-03-04T01:10:23.420Z,97.85
2023-03-04T01:11:25.973Z,89.82
2023-03-04T01:12:32.748Z,96.80
2023-03-04T01:13:35.661Z,97.20
2023-03-04T01:14:40.694Z,93.85
2023-03-04T01:15:42.941Z,99.38
2023-03-04T01:16:49.258Z,111.07
2023-03-04T01:17:51.982Z,93.22
2023-03-04T01:18:56.995Z,97.93
2023-03-04T01:20:06.366Z,108.07
2023-03-04T01:21:11.594Z,100.47
2023-03-04T01:22:15.440Z,112.38
2023-03-04T01:23:20.788Z,98.95
2023-03-04T01:24:23.474Z,98.22
2023-03-04T01:25:28.800Z,96.65
2023-03-04T01:26:31.174Z,87.43
2023-03-04T01:27:36.471Z,94.72
2023-03-04T01:28:38.981Z,89.07
2023-03-04T01:29:44.265Z,98.78
2023-03-04T01:30:47.092Z,97.65
2023-03-04T01:31:52.160Z,88.57
2023-03-04T01:32:54.763Z,96.72
2023-03-04T01:33:59.973Z,84.88
2023-03-04T01:35:06.398Z,91.75
2023-03-04T01:36:11.537Z,94.55
2023-03-04T01:37:14.669Z,90.05
2023-03-04T01:38:21.246Z,98.35
2023-03-04T01:39:24.629Z,97.70
2023-03-04T01:40:30.922Z,96.65
2023-03-04T01:41:33.609Z,86.50
2023-03-04T01:42:40.243Z,93.35
2023-03-04T01:43:42.627Z,93.82
2023-03-04T01:44:48.737Z,97.72
2023-03-04T01:45:52.464Z,89.32
2023-03-04T01:46:59.641Z,94.47
2023-03-04T01:48:02.569Z,85.35
2023-03-04T01:49:09.765Z,92.13
2023-03-04T01:50:31.729Z,88.20
2023-03-04T01:52:47.222Z,82.93
2023-03-04T01:53:53.802Z,98.70
2023-03-04T01:54:59.420Z,85.05
2023-03-04T01:56:06.054Z,88.57
2023-03-04T01:57:19.646Z,95.88
2023-03-04T01:58:22.467Z,84.22
2023-03-04T01:59:29.740Z,90.20
2023-03-04T02:00:34.957Z,92.53
2023-03-04T02:01:41.127Z,99.22
2023-03-04T02:02:43.577Z,100.00
2023-03-04T02:03:48.660Z,106.55
2023-03-04T02:04:50.830Z,114.53
2023-03-04T02:05:59.796Z,98.00
2023-03-04T02:07:04.373Z,93.78
2023-03-04T02:08:10.337Z,89.72
2023-03-04T02:09:13.567Z,102.05
2023-03-04T02:10:19.269Z,90.25
2023-03-04T02:11:21.650Z,88.60
2023-03-04T02:12:27.403Z,98.72
2023-03-04T02:13:30.409Z,89.30
2023-03-04T02:14:36.744Z,94.25
2023-03-04T02:15:39.535Z,88.80
2023-03-04T02:16:45.102Z,91.28
2023-03-04T02:17:47.799Z,94.95
2023-03-04T02:18:53.723Z,91.63
2023-03-04T02:20:03.765Z,93.50
2023-03-04T02:21:19.126Z,92.68
2023-03-04T02:22:21.388Z,85.13
2023-03-04T02:23:33.920Z,88.03
2023-03-04T02:24:41.643Z,93.22
2023-03-04T02:25:51.070Z,94.93
2023-03-04T02:26:56.375Z,100.25
2023-03-04T02:28:01.608Z,107.63
2023-03-04T02:29:05.152Z,92.22
2023-03-04T02:30:16.370Z,89.40
2023-03-04T02:31:25.181Z,89.55
2023-03-04T02:32:30.563Z,96.63
2023-03-04T02:33:33.569Z,102.85
2023-03-04T02:34:43.708Z,95.93
2023-03-04T02:35:47.602Z,98.13
2023-03-04T02:36:55.929Z,102.65
2023-03-04T02:37:58.167Z,93.22
2023-03-04T02:39:08.806Z,96.97
2023-03-04T02:40:19.803Z,102.80
2023-03-04T02:41:27.980Z,94.15
2023-03-04T02:42:33.161Z,84.40
2023-03-04T02:43:38.638Z,98.60
2023-03-04T02:44:43.923Z,102.63
2023-03-04T02:45:52.199Z,102.35
2023-03-04T02:46:56.177Z,105.57
2023-03-04T02:48:01.354Z,105.03
2023-03-04T02:49:04.064Z,96.95
2023-03-04T02:50:10.200Z,103.45
2023-03-04T02:51:12.623Z,107.57
2023-03-04T02:52:22.029Z,105.55
2023-03-04T02:53:25.734Z,105.43
2023-03-04T02:54:32.803Z,118.80
2023-03-04T02:55:35.358Z,106.47
2023-03-04T02:56:41.719Z,104.13
2023-03-04T02:57:46.980Z,111.38
2023-03-04T02:58:54.957Z,112.75
2023-03-04T02:59:57.291Z,112.20
2023-03-04T03:01:02.660Z,119.40
2023-03-04T03:02:05.099Z,109.65
2023-03-04T03:03:11.011Z,106.25
2023-03-04T03:04:14.304Z,112.95
2023-03-04T03:05:20.224Z,113.78
2023-03-04T03:06:27.151Z,113.93
2023-03-04T03:07:29.511Z,119.85
2023-03-04T03:08:34.638Z,109.65
2023-03-04T03:09:37.392Z,117.55
2023-03-04T03:10:42.965Z,98.13
2023-03-04T03:11:45.194Z,111.90
2023-03-04T03:12:53.996Z,112.03
2023-03-04T03:13:56.719Z,125.32
2023-03-04T03:15:02.223Z,133.70
2023-03-04T03:16:05.204Z,117.93
2023-03-04T03:17:10.827Z,122.90
2023-03-04T03:18:14.058Z,133.13
2023-03-04T03:19:19.309Z,126.22
2023-03-04T03:20:27.433Z,120.07
2023-03-04T03:21:33.278Z,112.95
2023-03-04T03:22:36.632Z,106.80
2023-03-04T03:23:41.810Z,124.40
2023-03-04T03:24:44.211Z,124.80
2023-03-04T03:25:49.681Z,118.45
2023-03-04T03:26:52.037Z,122.63
2023-03-04T03:28:00.375Z,126.15
2023-03-04T03:29:02.939Z,128.60
2023-03-04T03:30:10.561Z,114.40
2023-03-04T03:31:12.977Z,118.65
2023-03-04T03:32:18.398Z,123.57
2023-03-04T03:33:20.580Z,128.35
2023-03-04T03:34:27.790Z,114.22
2023-03-04T03:35:31.460Z,122.75
2023-03-04T03:36:36.770Z,110.85
2023-03-04T03:37:39.065Z,131.60
2023-03-04T03:38:44.694Z,119.32
2023-03-04T03:39:46.865Z,133.80
2023-03-04T03:40:52.157Z,118.70
2023-03-04T03:41:54.617Z,126.20
2023-03-04T03:43:02.905Z,129.85
2023-03-04T03:44:05.368Z,130.98
2023-03-04T03:45:12.925Z,121.38
2023-03-04T03:46:15.425Z,119.22
2023-03-04T03:47:20.953Z,139.43
2023-03-04T03:48:23.323Z,125.07
2023-03-04T03:49:28.655Z,115.28
2023-03-04T03:50:31.235Z,135.65
2023-03-04T03:51:36.604Z,123.15
2023-03-04T03:52:39.124Z,142.45
2023-03-04T03:53:44.206Z,141.30
2023-03-04T03:54:46.561Z,139.98
2023-03-04T03:55:51.835Z,147.93
2023-03-04T03:56:54.404Z,137.57
2023-03-04T03:58:04.241Z,141.77
2023-03-04T03:59:07.073Z,156.23
2023-03-04T04:00:14.567Z,146.50
2023-03-04T04:01:16.716Z,157.50
2023-03-04T04:02:23.372Z,143.55
2023-03-04T04:03:26.425Z,149.40
2023-03-04T04:04:31.557Z,131.45
2023-03-04T04:05:33.785Z,151.77
2023-03-04T04:06:39.178Z,131.38
2023-03-04T04:07:41.934Z,146.25
2023-03-04T04:08:47.626Z,145.73
2023-03-04T04:09:49.895Z,159.05
2023-03-04T04:10:55.184Z,168.88
2023-03-04T04:11:57.898Z,144.23
2023-03-04T04:13:06.073Z,142.20
2023-03-04T04:14:10.795Z,138.48
2023-03-04T04:15:21.423Z,128.27
2023-03-04T04:16:24.053Z,137.65
2023-03-04T04:17:29.567Z,126.22
2023-03-04T04:18:32.301Z,140.45
2023-03-04T04:19:37.270Z,132.98
2023-03-04T04:20:39.721Z,141.38
2023-03-04T04:21:45.543Z,158.07
2023-03-04T04:22:47.882Z,141.40
2023-03-04T04:23:55.708Z,141.82
2023-03-04T04:24:58.203Z,135.02
2023-03-04T04:26:04.892Z,140.10
2023-03-04T04:27:07.762Z,159.35
2023-03-04T04:28:15.976Z,153.55
2023-03-04T04:29:18.576Z,164.98
2023-03-04T04:30:24.552Z,167.40
2023-03-04T04:31:27.503Z,167.23
2023-03-04T04:32:33.544Z,170.85
2023-03-04T04:33:36.025Z,163.20
2023-03-04T04:34:41.657Z,174.05
2023-03-04T04:35:44.048Z,187.25
2023-03-04T04:36:49.348Z,180.57
2023-03-04T04:37:51.722Z,174.10
2023-03-04T04:38:58.296Z,172.68
2023-03-04T04:40:00.860Z,171.68
2023-03-04T04:41:07.081Z,173.63
2023-03-04T04:42:10.764Z,180.00
2023-03-04T04:43:18.720Z,183.27
2023-03-04T04:44:24.243Z,172.63
2023-03-04T04:45:27.001Z,171.68
2023-03-04T04:46:32.158Z,177.20
2023-03-04T04:47:34.316Z,163.45
2023-03-04T04:48:39.607Z,190.95
2023-03-04T04:49:41.851Z,211.00
2023-03-04T04:50:46.890Z,214.95
2023-03-04T04:51:52.941Z,211.13
2023-03-04T04:52:55.387Z,214.35
2023-03-04T04:54:02.072Z,220.38
2023-03-04T04:55:05.537Z,224.50
2023-03-04T04:56:15.625Z,249.85
2023-03-04T04:57:17.901Z,253.65
2023-03-04T04:58:25.936Z,275.15
2023-03-04T04:59:28.198Z,265.27
2023-03-04T05:00:33.523Z,268.40
2023-03-04T05:01:35.955Z,287.90
2023-03-04T05:02:41.544Z,312.83
2023-03-04T05:03:44.179Z,329.20
2023-03-04T05:04:49.534Z,349.92
2023-03-04T05:05:52.003Z,314.38
2023-03-04T05:06:59.916Z,311.23
2023-03-04T05:08:02.456Z,332.75
2023-03-04T05:09:07.639Z,314.48
2023-03-04T05:10:14.270Z,328.42
2023-03-04T05:11:22.135Z,377.73
2023-03-04T05:12:24.515Z,399.27
2023-03-04T05:13:32.375Z,363.77
2023-03-04T05:14:34.817Z,358.55
2023-03-04T05:15:41.112Z,353.48
2023-03-04T05:16:43.795Z,387.38
2023-03-04T05:17:49.664Z,354.38
2023-03-04T05:18:51.992Z,360.95
2023-03-04T05:19:58.936Z,372.30
2023-03-04T05:21:03.748Z,355.55
2023-03-04T05:22:08.949Z,373.33
2023-03-04T05:23:11.172Z,336.17
2023-03-04T05:24:16.255Z,351.40
2023-03-04T05:25:18.767Z,367.02
2023-03-04T05:26:23.993Z,334.30
2023-03-04T05:27:26.559Z,330.38
2023-03-04T05:28:34.091Z,316.30
2023-03-04T05:29:36.305Z,342.80
2023-03-04T05:30:42.137Z,320.30
2023-03-04T05:31:44.416Z,341.13
2023-03-04T05:32:50.156Z,331.75
2023-03-04T05:33:52.630Z,317.48
2023-03-04T05:34:57.652Z,335.15
2023-03-04T05:36:00.407Z,333.05
2023-03-04T05:37:06.001Z,365.98
2023-03-04T05:38:11.027Z,315.17
2023-03-04T05:39:16.310Z,306.27
2023-03-04T05:40:19.138Z,318.10
2023-03-04T05:41:24.293Z,339.02
2023-03-04T05:42:26.765Z,334.85
2023-03-04T05:43:43.132Z,360.17
2023-03-04T05:44:45.734Z,365.95
2023-03-04T05:45:52.694Z,377.90
2023-03-04T05:46:54.858Z,443.25
2023-03-04T05:47:59.948Z,396.00
2023-03-04T05:49:02.185Z,446.27
2023-03-04T05:50:07.388Z,477.92
2023-03-04T05:51:09.850Z,423.15
2023-03-04T05:52:15.316Z,441.13
2023-03-04T05:53:17.399Z,459.58
2023-03-04T05:54:24.983Z,503.67
2023-03-04T05:55:30.468Z,502.92
2023-03-04T05:56:35.344Z,464.90
2023-03-04T05:57:37.656Z,484.45
2023-03-04T05:58:48.404Z,496.85
2023-03-04T05:59:50.749Z,479.08
2023-03-04T06:00:56.646Z,510.90
2023-03-04T06:01:59.305Z,526.80
2023-03-04T06:03:04.569Z,470.10
2023-03-04T06:04:07.625Z,538.50
2023-03-04T06:05:14.444Z,554.88
2023-03-04T06:06:16.634Z,660.00
2023-03-04T06:07:22.041Z,688.67
2023-03-04T06:08:24.392Z,542.85
2023-03-04T06:09:29.505Z,657.50
2023-03-04T06:10:31.706Z,662.35
2023-03-04T06:11:37.166Z,545.42
2023-03-04T06:12:39.697Z,591.30
2023-03-04T06:13:47.425Z,611.47
2023-03-04T06:14:50.039Z,597.03
2023-03-04T06:15:58.392Z,543.92
2023-03-04T06:17:00.866Z,671.05
2023-03-04T06:18:06.344Z,588.67
2023-03-04T06:19:08.734Z,571.72
2023-03-04T06:20:16.787Z,604.15
2023-03-04T06:21:19.044Z,591.97
2023-03-04T06:22:24.278Z,576.22
2023-03-04T06:23:27.859Z,473.58
2023-03-04T06:24:33.000Z,552.95
2023-03-04T06:25:35.101Z,531.92
2023-03-04T06:26:40.130Z,410.90
2023-03-04T06:27:42.452Z,450.10
2023-03-04T06:28:50.997Z,434.20
2023-03-04T06:29:53.348Z,554.10
2023-03-04T06:30:59.810Z,407.70
2023-03-04T06:32:02.588Z,406.38
2023-03-04T06:33:07.759Z,447.15
2023-03-04T06:34:10.148Z,410.02
2023-03-04T06:35:19.604Z,379.08
2023-03-04T06:36:22.457Z,416.58
2023-03-04T06:37:27.552Z,447.83
2023-03-04T06:38:29.799Z,376.58
2023-03-04T06:39:34.902Z,363.10
2023-03-04T06:40:39.905Z,375.08
2023-03-04T06:41:43.445Z,368.52
2023-03-04T06:42:48.914Z,334.73
2023-03-04T06:43:54.880Z,356.88
2023-03-04T06:45:02.558Z,339.45
2023-03-04T06:46:05.510Z,320.50
2023-03-04T06:47:10.639Z,329.77
2023-03-04T06:48:13.230Z,259.70
2023-03-04T06:49:18.740Z,284.52
2023-03-04T06:50:21.342Z,260.48
2023-03-04T06:51:27.136Z,263.15
2023-03-04T06:52:29.208Z,255.38
2023-03-04T06:53:34.698Z,234.63
2023-03-04T06:54:37.033Z,223.82
2023-03-04T06:55:42.006Z,229.23
2023-03-04T06:56:44.372Z,210.32
2023-03-04T06:57:49.303Z,208.93
2023-03-04T06:58:54.866Z,218.23
2023-03-04T07:00:00.138Z,198.65
2023-03-04T07:01:14.043Z,203.48
2023-03-04T07:02:19.490Z,169.55
2023-03-04T07:03:22.634Z,193.38
2023-03-04T07:04:28.141Z,180.10
2023-03-04T07:05:30.525Z,155.63
2023-03-04T07:06:35.799Z,160.30
2023-03-04T07:07:38.260Z,212.38
2023-03-04T07:08:43.960Z,172.02
2023-03-04T07:09:48.997Z,192.93
2023-03-04T07:10:51.222Z,171.00
2023-03-04T07:11:56.962Z,181.63
2023-03-04T07:12:59.660Z,154.38
2023-03-04T07:14:10.577Z,199.77
2023-03-04T07:15:15.055Z,145.85
2023-03-04T07:16:25.616Z,172.60
2023-03-04T07:17:30.597Z,254.43
2023-03-04T07:18:57.089Z,178.02
2023-03-04T07:20:00.549Z,118.60
2023-03-04T07:21:06.265Z,155.80
2023-03-04T07:22:08.866Z,127.72
2023-03-04T07:23:17.290Z,205.57
2023-03-04T07:24:20.573Z,152.10
2023-03-04T07:25:25.837Z,123.53
2023-03-04T07:26:28.038Z,92.43
2023-03-04T07:27:33.161Z,108.38
2023-03-04T07:28:36.583Z,96.50
2023-03-04T07:29:44.119Z,119.82
2023-03-04T07:30:46.348Z,115.53
2023-03-04T07:31:53.613Z,140.52
2023-03-04T07:32:58.607Z,87.30
2023-03-04T07:34:05.701Z,84.28
2023-03-04T07:35:08.725Z,75.47
2023-03-04T07:36:15.041Z,98.43
2023-03-04T07:37:19.792Z,112.38
2023-03-04T07:38:21.875Z,69.72
2023-03-04T07:39:27.649Z,67.25
2023-03-04T07:40:30.203Z,76.72
2023-03-04T07:41:36.978Z,84.90
2023-03-04T07:42:39.408Z,88.20
2023-03-04T07:43:47.060Z,89.82
2023-03-04T07:44:57.670Z,93.25
2023-03-04T07:46:01.963Z,75.53
2023-03-04T07:47:07.580Z,86.47
2023-03-04T07:48:10.176Z,84.47
2023-03-04T07:49:16.600Z,83.95
2023-03-04T07:50:19.466Z,78.40
2023-03-04T07:51:26.450Z,69.70
2023-03-04T07:52:28.899Z,76.70
2023-03-04T07:53:35.102Z,67.75
2023-03-04T07:54:40.437Z,74.07
2023-03-04T07:55:42.839Z,65.03
2023-03-04T07:56:48.181Z,76.30
2023-03-04T07:57:51.977Z,70.45
2023-03-04T07:58:57.642Z,60.17
2023-03-04T08:00:02.782Z,72.40
2023-03-04T08:01:13.397Z,59.90
2023-03-04T08:02:19.323Z,58.35
2023-03-04T08:03:21.542Z,50.45
2023-03-04T08:04:26.492Z,51.97
2023-03-04T08:05:28.842Z,57.70
2023-03-04T08:06:35.759Z,66.53
2023-03-04T08:07:38.121Z,65.60
2023-03-04T08:08:44.531Z,64.45
2023-03-04T08:09:46.826Z,79.43
2023-03-04T08:10:55.139Z,57.08
2023-03-04T08:12:03.432Z,61.10
2023-03-04T08:13:05.816Z,55.53
2023-03-04T08:14:14.441Z,55.22
2023-03-04T08:15:19.635Z,73.40
2023-03-04T08:16:27.287Z,64.88
2023-03-04T08:17:29.936Z,86.07
2023-03-04T08:18:35.336Z,55.10
2023-03-04T08:19:37.501Z,54.55
2023-03-04T08:20:46.676Z,61.78
2023-03-04T08:21:50.075Z,57.00
2023-03-04T08:22:55.451Z,51.33
2023-03-04T08:24:02.707Z,63.78
2023-03-04T08:25:06.432Z,65.25
2023-03-04T08:26:12.776Z,54.78
2023-03-04T08:27:18.502Z,68.95
2023-03-04T08:28:20.979Z,51.45
2023-03-04T08:29:27.963Z,139.40
2023-03-04T08:30:36.409Z,90.22
2023-03-04T08:31:41.963Z,99.68
2023-03-04T08:32:46.979Z,67.07
2023-03-04T08:33:54.688Z,70.70
2023-03-04T08:34:57.454Z,64.80
2023-03-04T08:36:04.070Z,61.35
2023-03-04T08:37:06.566Z,66.55
2023-03-04T08:38:12.028Z,87.85
2023-03-04T08:39:17.840Z,75.47
2023-03-04T08:40:29.168Z,69.63
2023-03-04T08:41:34.300Z,67.60
2023-03-04T08:42:36.879Z,71.13
2023-03-04T08:43:42.466Z,72.22
2023-03-04T08:44:47.684Z,94.80
2023-03-04T08:45:53.251Z,60.55
2023-03-04T08:46:58.961Z,55.47
2023-03-04T08:48:04.249Z,56.97
2023-03-04T08:49:07.058Z,53.97
2023-03-04T08:50:15.020Z,58.00
2023-03-04T08:51:20.140Z,61.45
2023-03-04T08:52:47.017Z,57.72
2023-03-04T08:53:51.424Z,49.65
2023-03-04T09:03:01.478Z,232.32
2023-03-04T09:04:06.146Z,183.73
2023-03-04T09:05:09.496Z,251.05
2023-03-04T09:06:17.431Z,167.02
2023-03-04T09:07:19.507Z,187.35
2023-03-04T09:08:24.306Z,251.40
2023-03-04T09:09:26.524Z,231.23
2023-03-04T09:10:31.474Z,232.13
2023-03-04T09:11:33.535Z,334.70
2023-03-04T09:12:38.128Z,269.83
2023-03-04T09:13:40.181Z,231.98
2023-03-04T09:14:44.752Z,185.35
2023-03-04T09:15:48.926Z,219.48
2023-03-04T09:16:53.737Z,151.23
2023-03-04T09:17:58.360Z,185.18
2023-03-04T09:19:03.457Z,217.30
2023-03-04T09:20:08.649Z,126.03
2023-03-04T09:21:14.102Z,235.48
2023-03-04T09:22:16.164Z,206.85
2023-03-04T09:23:21.367Z,128.27
2023-03-04T09:24:25.989Z,182.80
2023-03-04T09:25:28.076Z,214.68
2023-03-04T09:26:33.345Z,447.65
2023-03-04T09:27:35.429Z,205.55
2023-03-04T09:28:40.037Z,209.20
2023-03-04T09:29:43.348Z,172.45
2023-03-04T09:30:48.636Z,134.90
2023-03-04T09:31:50.674Z,161.85
2023-03-04T09:32:55.246Z,582.17
2023-03-04T09:34:00.507Z,170.60
2023-03-04T09:35:05.225Z,177.35
2023-03-04T09:36:08.696Z,242.15
2023-03-04T09:37:13.358Z,157.05
2023-03-04T09:38:15.382Z,154.07
2023-03-04T09:39:20.020Z,154.10
2023-03-04T09:40:24.931Z,175.48
2023-03-04T09:41:41.770Z,243.30
2023-03-04T09:42:48.072Z,128.32
2023-03-04T09:43:55.312Z,184.45
2023-03-04T09:44:58.030Z,146.88
2023-03-04T09:46:07.330Z,167.60
2023-03-04T09:47:14.277Z,158.27
2023-03-04T09:48:24.620Z,135.02
2023-03-04T09:49:30.929Z,184.75
2023-03-04T09:50:41.462Z,225.05
2023-03-04T09:52:03.447Z,228.45
2023-03-04T09:54:18.582Z,216.98
2023-03-04T09:55:25.414Z,194.65
2023-03-04T09:56:30.816Z,279.58
2023-03-04T09:57:44.576Z,253.32
2023-03-04T09:59:00.107Z,247.73
2023-03-04T10:00:10.612Z,155.70
2023-03-04T10:01:23.446Z,253.40
2023-03-04T10:02:39.168Z,257.17
2023-03-04T10:03:45.534Z,232.68
2023-03-04T10:04:55.778Z,213.13
2023-03-04T10:06:01.409Z,130.52
2023-03-04T10:07:08.271Z,154.55
2023-03-04T10:08:32.333Z,112.13
2023-03-04T10:09:48.986Z,241.15
2023-03-04T10:10:52.885Z,201.95
2023-03-04T10:12:05.440Z,192.15
2023-03-04T10:13:16.251Z,206.15
2023-03-04T10:14:41.446Z,137.48
2023-03-04T10:15:47.240Z,215.98
2023-03-04T10:16:55.325Z,199.88
2023-03-04T10:18:03.982Z,211.60
2023-03-04T10:19:26.883Z,184.68
2023-03-04T10:20:44.702Z,185.00
2023-03-04T10:21:48.666Z,156.75
2023-03-04T10:22:54.594Z,153.30
2023-03-04T10:23:59.675Z,187.25
2023-03-04T10:25:18.986Z,122.40
2023-03-04T10:26:26.068Z,188.95
2023-03-04T10:27:32.165Z,229.00
2023-03-04T10:28:35.684Z,267.85
2023-03-04T10:29:40.232Z,254.95
2023-03-04T10:30:51.879Z,151.85
2023-03-04T10:33:00.767Z,178.13
2023-03-04T10:34:05.919Z,193.30
2023-03-04T10:35:12.667Z,179.95
2023-03-04T10:36:42.492Z,135.32
2023-03-04T10:37:47.238Z,189.63
2023-03-04T10:38:52.499Z,179.32
2023-03-04T10:39:57.034Z,151.02
2023-03-04T10:41:00.050Z,239.70
2023-03-04T10:42:06.987Z,209.48
2023-03-04T10:43:16.080Z,239.73
2023-03-04T10:44:21.431Z,150.90
2023-03-04T10:45:30.786Z,156.48
2023-03-04T10:46:33.118Z,269.40
2023-03-04T10:47:37.652Z,269.65
2023-03-04T10:48:42.422Z,302.52
2023-03-04T10:49:55.210Z,185.35
2023-03-04T10:51:16.189Z,153.10
2023-03-04T10:52:31.517Z,117.13
2023-03-04T10:53:40.568Z,616.42
2023-03-04T10:54:50.778Z,157.32
2023-03-04T10:55:52.767Z,129.57
2023-03-04T10:57:01.958Z,146.27
2023-03-04T10:58:06.576Z,149.90
2023-03-04T10:59:33.291Z,177.85
2023-03-04T11:00:38.813Z,213.23
2023-03-04T11:01:41.267Z,206.05
2023-03-04T11:02:46.583Z,147.57
2023-03-04T11:03:49.733Z,122.40
2023-03-04T11:04:57.799Z,95.72
2023-03-04T11:06:08.438Z,124.35
2023-03-04T11:07:13.514Z,127.13
2023-03-04T11:08:22.946Z,203.93
2023-03-04T11:09:30.600Z,152.93
2023-03-04T11:10:43.529Z,231.35
2023-03-04T11:11:46.149Z,151.20
2023-03-04T11:12:58.201Z,139.00
2023-03-04T11:14:03.844Z,162.13
2023-03-04T11:15:20.903Z,117.03
2023-03-04T11:16:26.125Z,180.25
2023-03-04T11:17:32.171Z,167.55
2023-03-04T11:18:43.739Z,164.60
2023-03-04T11:20:52.881Z,119.05
2023-03-04T11:21:59.344Z,110.78
2023-03-04T11:23:05.401Z,152.23
2023-03-04T11:24:28.401Z,126.63
2023-03-04T11:25:34.173Z,232.57
2023-03-04T11:26:43.464Z,321.73
2023-03-04T11:27:51.556Z,140.50
2023-03-04T11:28:58.572Z,113.82
2023-03-04T11:30:16.050Z,140.95
2023-03-04T11:31:23.685Z,187.15
2023-03-04T11:32:32.742Z,188.38
2023-03-04T11:33:43.186Z,204.68
2023-03-04T11:34:54.510Z,163.52
2023-03-04T11:36:12.391Z,192.13
2023-03-04T11:37:22.319Z,126.35
2023-03-04T11:38:32.030Z,169.65
2023-03-04T11:39:43.988Z,205.77
2023-03-04T11:40:50.267Z,208.90
2023-03-04T11:42:01.630Z,118.78
2023-03-04T11:43:07.965Z,207.93
2023-03-04T11:44:15.843Z,186.63
2023-03-04T11:45:30.481Z,101.68
2023-03-04T11:47:03.970Z,247.15
2023-03-04T11:48:14.022Z,89.55
2023-03-04T11:49:54.308Z,125.63
2023-03-04T11:51:01.960Z,153.55
2023-03-04T11:52:12.461Z,101.28
2023-03-04T11:53:36.311Z,131.95
2023-03-04T11:54:51.598Z,210.38
2023-03-04T11:56:13.617Z,182.43
2023-03-04T11:57:34.049Z,164.73
2023-03-04T11:58:50.582Z,202.63
2023-03-04T12:00:18.670Z,263.15
2023-03-04T12:01:31.834Z,238.98
2023-03-04T12:02:46.309Z,243.13
2023-03-04T12:04:07.810Z,142.07
2023-03-04T12:05:34.383Z,184.75
2023-03-04T12:06:49.550Z,283.20
2023-03-04T12:08:20.949Z,149.68
2023-03-04T12:09:41.907Z,110.68
2023-03-04T12:10:58.153Z,143.43
2023-03-04T12:12:12.422Z,136.88
2023-03-04T12:13:58.311Z,210.60
2023-03-04T12:15:14.056Z,151.65
2023-03-04T12:16:31.323Z,189.80
2023-03-04T12:17:53.944Z,223.35
2023-03-04T12:19:14.598Z,204.32
2023-03-04T12:20:57.327Z,140.43
2023-03-04T12:22:17.099Z,256.77
2023-03-04T12:23:41.723Z,140.60
2023-03-04T12:25:02.666Z,217.57
2023-03-04T12:26:20.021Z,150.10
2023-03-04T12:27:32.356Z,159.98
2023-03-04T12:28:52.202Z,208.50
2023-03-04T12:29:59.831Z,97.28
2023-03-04T12:31:39.656Z,137.73
2023-03-04T12:32:47.748Z,194.55
2023-03-04T12:34:03.303Z,120.20
2023-03-04T12:35:31.460Z,92.95
2023-03-04T12:36:40.684Z,213.82
2023-03-04T12:37:59.744Z,212.18
2023-03-04T12:39:16.190Z,288.17
2023-03-04T12:40:31.325Z,107.90
2023-03-04T12:41:50.300Z,202.48
2023-03-04T12:43:10.711Z,236.40
2023-03-04T12:44:17.073Z,286.02
2023-03-04T12:45:28.187Z,195.68
2023-03-04T12:46:45.655Z,509.88
2023-03-04T12:47:57.740Z,401.60
2023-03-04T12:49:35.703Z,455.52
2023-03-04T12:50:42.804Z,647.75
2023-03-04T12:51:56.589Z,497.70
2023-03-04T12:53:05.625Z,248.57
2023-03-04T12:54:26.087Z,224.13
2023-03-04T12:55:39.349Z,195.02
2023-03-04T12:56:50.534Z,223.98
2023-03-04T12:57:58.321Z,166.60
2023-03-04T12:59:00.913Z,147.05
2023-03-04T13:00:21.262Z,193.43
2023-03-04T13:01:27.049Z,140.05
2023-03-04T13:02:46.352Z,176.35
2023-03-04T13:03:59.948Z,215.63
2023-03-04T13:05:16.325Z,139.40
2023-03-04T13:06:37.082Z,203.10
2023-03-04T13:07:49.385Z,204.98
2023-03-04T13:09:02.394Z,102.50
2023-03-04T13:10:10.297Z,119.50
2023-03-04T13:11:50.444Z,146.45
2023-03-04T13:12:59.502Z,123.65
2023-03-04T13:14:02.830Z,110.60
2023-03-04T13:15:35.937Z,129.85
2023-03-04T13:16:40.890Z,199.32
2023-03-04T13:17:49.241Z,203.93
2023-03-04T13:18:51.295Z,147.70
2023-03-04T13:20:01.277Z,141.15
2023-03-04T13:21:16.460Z,357.17
2023-03-04T13:22:45.556Z,183.98
2023-03-04T13:23:47.536Z,96.55
2023-03-04T13:24:52.835Z,158.55
2023-03-04T13:26:22.956Z,119.90
2023-03-04T13:27:50.189Z,221.65
2023-03-04T13:29:12.424Z,131.13
2023-03-04T13:30:43.022Z,107.05
2023-03-04T13:32:04.943Z,263.67
2023-03-04T13:34:45.245Z,136.43
2023-03-04T13:36:00.173Z,135.23
2023-03-04T13:37:04.996Z,213.02
2023-03-04T13:38:21.897Z,149.40
2023-03-04T13:39:37.682Z,187.73
2023-03-04T13:40:40.149Z,236.13
2023-03-04T13:41:51.423Z,323.67
2023-03-04T13:42:56.376Z,235.63
2023-03-04T13:44:02.036Z,228.18
2023-03-04T13:45:07.205Z,279.08
2023-03-04T13:46:42.060Z,323.77
2023-03-04T13:47:48.538Z,379.65
2023-03-04T13:49:05.629Z,319.88
2023-03-04T13:50:24.498Z,437.10
2023-03-04T13:51:32.111Z,318.08
2023-03-04T13:52:40.630Z,457.27
2023-03-04T13:53:47.458Z,492.63
2023-03-04T13:54:49.475Z,333.00
2023-03-04T13:56:12.175Z,423.75
2023-03-04T13:57:22.275Z,337.65
2023-03-04T13:58:27.084Z,369.27
2023-03-04T13:59:42.105Z,336.70
2023-03-04T14:00:50.147Z,433.10
2023-03-04T14:02:00.148Z,343.65
2023-03-04T14:03:14.292Z,168.77
2023-03-04T14:04:21.409Z,256.35
2023-03-04T14:05:26.122Z,248.85
2023-03-04T14:06:29.737Z,191.63
2023-03-04T14:07:36.714Z,315.45
2023-03-04T14:08:38.731Z,245.48
2023-03-04T14:09:43.330Z,217.85
2023-03-04T14:10:45.346Z,221.70
2023-03-04T14:11:50.909Z,210.23
2023-03-04T14:12:56.460Z,186.52
2023-03-04T14:14:27.869Z,173.57
2023-03-04T14:15:36.810Z,239.20
2023-03-04T14:16:54.007Z,372.52
2023-03-04T14:18:05.785Z,205.38
2023-03-04T14:19:22.192Z,211.38